sensor_id;sensor_type;location;lat;lon;timestamp;pressure;altitude;pressure_sealevel;temperature;humidity
41703;BME280;861;48.808;9.006;2024-01-25T00:02:18;98300.06;;;11.05;71.83
41703;BME280;861;48.808;9.006;2024-01-25T00:04:44;98281.34;;;11.04;71.95
41703;BME280;861;48.808;9.006;2024-01-25T00:07:11;98268.06;;;11.02;71.56
41703;BME280;861;48.808;9.006;2024-01-25T00:09:38;98261.69;;;10.95;73.00
41703;BME280;861;48.808;9.006;2024-01-25T00:12:05;98266.63;;;10.89;73.28
41703;BME280;861;48.808;9.006;2024-01-25T00:14:32;98266.22;;;10.87;72.87
41703;BME280;861;48.808;9.006;2024-01-25T00:16:58;98263.31;;;10.80;74.07
41703;BME280;861;48.808;9.006;2024-01-25T00:19:25;98262.97;;;10.81;74.05
41703;BME280;861;48.808;9.006;2024-01-25T00:21:51;98252.44;;;10.80;74.49
41703;BME280;861;48.808;9.006;2024-01-25T00:24:18;98262.53;;;10.99;73.21
41703;BME280;861;48.808;9.006;2024-01-25T00:26:45;98252.28;;;10.92;73.77
41703;BME280;861;48.808;9.006;2024-01-25T00:29:11;98260.63;;;10.99;73.66
41703;BME280;861;48.808;9.006;2024-01-25T00:31:38;98253.25;;;11.00;73.77
41703;BME280;861;48.808;9.006;2024-01-25T00:34:05;98263.63;;;10.94;74.67
41703;BME280;861;48.808;9.006;2024-01-25T00:36:32;98255.38;;;10.91;74.18
41703;BME280;861;48.808;9.006;2024-01-25T00:38:59;98260.78;;;11.06;74.57
41703;BME280;861;48.808;9.006;2024-01-25T00:41:26;98250.34;;;10.93;75.20
41703;BME280;861;48.808;9.006;2024-01-25T00:43:54;98250.06;;;10.98;74.93
41703;BME280;861;48.808;9.006;2024-01-25T00:46:21;98253.88;;;10.93;74.69
41703;BME280;861;48.808;9.006;2024-01-25T00:48:48;98240.34;;;10.97;75.39
41703;BME280;861;48.808;9.006;2024-01-25T00:51:21;98241.09;;;10.97;74.48
41703;BME280;861;48.808;9.006;2024-01-25T00:53:51;98238.19;;;11.06;75.09
41703;BME280;861;48.808;9.006;2024-01-25T00:56:18;98243.19;;;11.04;75.00
41703;BME280;861;48.808;9.006;2024-01-25T00:58:45;98246.72;;;11.04;75.25
41703;BME280;861;48.808;9.006;2024-01-25T01:01:13;98242.84;;;11.05;75.25
41703;BME280;861;48.808;9.006;2024-01-25T01:03:40;98236.19;;;11.03;74.75
41703;BME280;861;48.808;9.006;2024-01-25T01:06:07;98242.03;;;11.05;74.31
41703;BME280;861;48.808;9.006;2024-01-25T01:08:35;98237.47;;;11.09;74.67
41703;BME280;861;48.808;9.006;2024-01-25T01:11:02;98247.00;;;10.99;74.85
41703;BME280;861;48.808;9.006;2024-01-25T01:13:29;98246.47;;;10.94;74.31
41703;BME280;861;48.808;9.006;2024-01-25T01:15:55;98234.16;;;10.80;74.83
41703;BME280;861;48.808;9.006;2024-01-25T01:18:22;98246.78;;;11.08;74.47
41703;BME280;861;48.808;9.006;2024-01-25T01:20:49;98238.75;;;10.96;74.46
41703;BME280;861;48.808;9.006;2024-01-25T01:23:15;98233.09;;;11.04;74.54
41703;BME280;861;48.808;9.006;2024-01-25T01:25:42;98234.81;;;10.93;75.20
41703;BME280;861;48.808;9.006;2024-01-25T01:28:08;98239.53;;;10.96;74.48
41703;BME280;861;48.808;9.006;2024-01-25T01:30:35;98248.44;;;10.93;74.80
41703;BME280;861;48.808;9.006;2024-01-25T01:33:01;98225.69;;;10.86;74.84
41703;BME280;861;48.808;9.006;2024-01-25T01:35:28;98229.00;;;10.95;75.04
41703;BME280;861;48.808;9.006;2024-01-25T01:37:54;98224.53;;;10.87;74.97
41703;BME280;861;48.808;9.006;2024-01-25T01:40:21;98227.19;;;10.83;73.42
41703;BME280;861;48.808;9.006;2024-01-25T01:42:47;98229.41;;;10.77;73.39
41703;BME280;861;48.808;9.006;2024-01-25T01:45:14;98256.34;;;10.82;73.29
41703;BME280;861;48.808;9.006;2024-01-25T01:47:41;98240.25;;;10.93;73.30
41703;BME280;861;48.808;9.006;2024-01-25T01:50:09;98230.13;;;10.94;72.67
41703;BME280;861;48.808;9.006;2024-01-25T01:52:37;98225.25;;;10.83;72.63
41703;BME280;861;48.808;9.006;2024-01-25T01:55:05;98229.84;;;10.79;73.81
41703;BME280;861;48.808;9.006;2024-01-25T01:57:34;98235.00;;;10.84;73.84
41703;BME280;861;48.808;9.006;2024-01-25T02:00:04;98237.09;;;10.91;73.39
41703;BME280;861;48.808;9.006;2024-01-25T02:02:34;98240.91;;;10.87;74.04
41703;BME280;861;48.808;9.006;2024-01-25T02:05:02;98232.44;;;10.92;73.02
41703;BME280;861;48.808;9.006;2024-01-25T02:07:31;98233.78;;;10.82;74.09
41703;BME280;861;48.808;9.006;2024-01-25T02:09:57;98227.78;;;10.73;73.77
41703;BME280;861;48.808;9.006;2024-01-25T02:12:24;98237.00;;;10.68;74.22
41703;BME280;861;48.808;9.006;2024-01-25T02:14:51;98224.47;;;10.83;74.21
41703;BME280;861;48.808;9.006;2024-01-25T02:17:18;98209.38;;;10.70;74.16
41703;BME280;861;48.808;9.006;2024-01-25T02:19:44;98203.31;;;10.76;72.94
41703;BME280;861;48.808;9.006;2024-01-25T02:22:11;98203.81;;;10.82;73.47
41703;BME280;861;48.808;9.006;2024-01-25T02:24:37;98202.59;;;10.79;73.99
41703;BME280;861;48.808;9.006;2024-01-25T02:27:04;98212.34;;;10.80;73.66
41703;BME280;861;48.808;9.006;2024-01-25T02:29:31;98212.56;;;10.72;72.32
41703;BME280;861;48.808;9.006;2024-01-25T02:31:57;98216.34;;;10.67;72.63
41703;BME280;861;48.808;9.006;2024-01-25T02:34:24;98218.44;;;10.74;73.67
41703;BME280;861;48.808;9.006;2024-01-25T02:36:51;98232.13;;;10.58;73.48
41703;BME280;861;48.808;9.006;2024-01-25T02:39:17;98226.06;;;10.49;74.10
41703;BME280;861;48.808;9.006;2024-01-25T02:41:44;98219.28;;;10.59;73.61
41703;BME280;861;48.808;9.006;2024-01-25T02:44:12;98231.03;;;10.63;74.49
41703;BME280;861;48.808;9.006;2024-01-25T02:46:38;98218.50;;;10.58;73.55
41703;BME280;861;48.808;9.006;2024-01-25T02:49:05;98222.16;;;10.66;73.41
41703;BME280;861;48.808;9.006;2024-01-25T02:51:31;98219.34;;;10.62;73.47
41703;BME280;861;48.808;9.006;2024-01-25T02:53:58;98220.06;;;10.59;74.67
41703;BME280;861;48.808;9.006;2024-01-25T02:56:25;98229.47;;;10.62;74.62
41703;BME280;861;48.808;9.006;2024-01-25T02:58:51;98218.00;;;10.72;73.32
41703;BME280;861;48.808;9.006;2024-01-25T03:01:18;98224.97;;;10.69;74.02
41703;BME280;861;48.808;9.006;2024-01-25T03:03:44;98225.72;;;10.70;73.88
41703;BME280;861;48.808;9.006;2024-01-25T03:06:11;98219.50;;;10.69;72.79
41703;BME280;861;48.808;9.006;2024-01-25T03:08:37;98224.72;;;10.59;74.37
41703;BME280;861;48.808;9.006;2024-01-25T03:11:04;98222.34;;;10.57;74.22
41703;BME280;861;48.808;9.006;2024-01-25T03:13:31;98237.69;;;10.65;73.95
41703;BME280;861;48.808;9.006;2024-01-25T03:15:59;98220.22;;;10.66;73.70
41703;BME280;861;48.808;9.006;2024-01-25T03:18:25;98236.13;;;10.64;73.44
41703;BME280;861;48.808;9.006;2024-01-25T03:20:52;98237.28;;;10.63;74.08
41703;BME280;861;48.808;9.006;2024-01-25T03:23:18;98243.25;;;10.69;73.02
41703;BME280;861;48.808;9.006;2024-01-25T03:25:45;98250.59;;;10.68;74.02
41703;BME280;861;48.808;9.006;2024-01-25T03:28:12;98254.03;;;10.65;74.09
41703;BME280;861;48.808;9.006;2024-01-25T03:30:40;98253.63;;;10.63;73.67
41703;BME280;861;48.808;9.006;2024-01-25T03:33:06;98246.31;;;10.67;73.30
41703;BME280;861;48.808;9.006;2024-01-25T03:35:33;98248.72;;;10.53;73.80
41703;BME280;861;48.808;9.006;2024-01-25T03:37:59;98257.84;;;10.61;74.31
41703;BME280;861;48.808;9.006;2024-01-25T03:40:26;98269.97;;;10.63;73.88
41703;BME280;861;48.808;9.006;2024-01-25T03:42:52;98267.72;;;10.50;74.20
41703;BME280;861;48.808;9.006;2024-01-25T03:45:19;98268.31;;;10.43;74.95
41703;BME280;861;48.808;9.006;2024-01-25T03:47:45;98265.69;;;10.47;75.27
41703;BME280;861;48.808;9.006;2024-01-25T03:50:12;98282.25;;;10.57;74.92
41703;BME280;861;48.808;9.006;2024-01-25T03:52:38;98283.16;;;10.61;74.44
41703;BME280;861;48.808;9.006;2024-01-25T03:55:06;98282.75;;;10.44;74.99
41703;BME280;861;48.808;9.006;2024-01-25T03:57:33;98287.03;;;10.45;75.34
41703;BME280;861;48.808;9.006;2024-01-25T04:00:00;98284.13;;;10.53;75.28
41703;BME280;861;48.808;9.006;2024-01-25T04:02:26;98304.25;;;10.49;74.80
41703;BME280;861;48.808;9.006;2024-01-25T04:04:53;98302.50;;;10.56;74.82
41703;BME280;861;48.808;9.006;2024-01-25T04:07:19;98297.72;;;10.69;74.89
41703;BME280;861;48.808;9.006;2024-01-25T04:09:46;98305.38;;;10.63;74.96
41703;BME280;861;48.808;9.006;2024-01-25T04:12:12;98303.59;;;10.71;73.71
41703;BME280;861;48.808;9.006;2024-01-25T04:14:39;98300.84;;;10.52;73.40
41703;BME280;861;48.808;9.006;2024-01-25T04:17:05;98299.53;;;10.46;74.88
41703;BME280;861;48.808;9.006;2024-01-25T04:19:32;98315.06;;;10.30;75.42
41703;BME280;861;48.808;9.006;2024-01-25T04:21:59;98319.72;;;10.45;74.01
41703;BME280;861;48.808;9.006;2024-01-25T04:24:25;98317.16;;;10.52;73.44
41703;BME280;861;48.808;9.006;2024-01-25T04:26:52;98312.00;;;10.47;73.78
41703;BME280;861;48.808;9.006;2024-01-25T04:29:19;98314.56;;;10.40;73.39
41703;BME280;861;48.808;9.006;2024-01-25T04:31:46;98310.25;;;10.39;74.08
41703;BME280;861;48.808;9.006;2024-01-25T04:34:15;98325.44;;;10.24;74.11
41703;BME280;861;48.808;9.006;2024-01-25T04:36:43;98316.03;;;10.37;73.86
41703;BME280;861;48.808;9.006;2024-01-25T04:39:09;98326.75;;;10.46;73.61
41703;BME280;861;48.808;9.006;2024-01-25T04:41:37;98331.22;;;10.38;74.36
41703;BME280;861;48.808;9.006;2024-01-25T04:44:04;98338.63;;;10.22;74.60
41703;BME280;861;48.808;9.006;2024-01-25T04:46:30;98337.66;;;10.30;74.07
41703;BME280;861;48.808;9.006;2024-01-25T04:49:03;98347.56;;;10.38;73.47
41703;BME280;861;48.808;9.006;2024-01-25T04:51:30;98350.00;;;10.59;72.95
41703;BME280;861;48.808;9.006;2024-01-25T04:53:57;98342.41;;;10.33;73.60
41703;BME280;861;48.808;9.006;2024-01-25T04:56:23;98348.09;;;10.28;72.52
41703;BME280;861;48.808;9.006;2024-01-25T04:58:50;98338.44;;;10.31;73.24
41703;BME280;861;48.808;9.006;2024-01-25T05:01:16;98348.09;;;10.28;73.16
41703;BME280;861;48.808;9.006;2024-01-25T05:03:43;98360.03;;;10.24;73.52
41703;BME280;861;48.808;9.006;2024-01-25T05:06:09;98363.28;;;10.29;73.32
41703;BME280;861;48.808;9.006;2024-01-25T05:08:36;98362.78;;;10.39;72.22
41703;BME280;861;48.808;9.006;2024-01-25T05:11:03;98369.09;;;10.28;72.93
41703;BME280;861;48.808;9.006;2024-01-25T05:13:29;98358.72;;;10.33;71.95
41703;BME280;861;48.808;9.006;2024-01-25T05:15:56;98360.47;;;10.26;72.25
41703;BME280;861;48.808;9.006;2024-01-25T05:18:22;98351.88;;;10.08;72.25
41703;BME280;861;48.808;9.006;2024-01-25T05:20:49;98354.84;;;10.19;72.13
41703;BME280;861;48.808;9.006;2024-01-25T05:23:15;98344.31;;;10.17;71.70
41703;BME280;861;48.808;9.006;2024-01-25T05:25:42;98352.38;;;10.14;72.44
41703;BME280;861;48.808;9.006;2024-01-25T05:28:09;98343.00;;;10.11;72.37
41703;BME280;861;48.808;9.006;2024-01-25T05:30:35;98354.91;;;10.07;72.77
41703;BME280;861;48.808;9.006;2024-01-25T05:33:02;98339.66;;;9.75;73.99
41703;BME280;861;48.808;9.006;2024-01-25T05:35:29;98350.72;;;9.82;73.93
41703;BME280;861;48.808;9.006;2024-01-25T05:37:55;98356.63;;;9.84;74.13
41703;BME280;861;48.808;9.006;2024-01-25T05:40:25;98360.59;;;9.86;74.19
41703;BME280;861;48.808;9.006;2024-01-25T05:42:51;98361.31;;;9.71;75.13
41703;BME280;861;48.808;9.006;2024-01-25T05:45:18;98356.34;;;9.73;75.40
41703;BME280;861;48.808;9.006;2024-01-25T05:47:47;98354.25;;;9.82;74.78
41703;BME280;861;48.808;9.006;2024-01-25T05:50:14;98366.63;;;9.80;75.26
41703;BME280;861;48.808;9.006;2024-01-25T05:52:41;98365.44;;;9.65;75.42
41703;BME280;861;48.808;9.006;2024-01-25T05:55:08;98369.81;;;9.70;75.66
41703;BME280;861;48.808;9.006;2024-01-25T05:57:37;98364.03;;;9.71;76.16
41703;BME280;861;48.808;9.006;2024-01-25T06:00:05;98356.06;;;9.51;76.52
41703;BME280;861;48.808;9.006;2024-01-25T06:02:32;98362.97;;;9.60;76.96
41703;BME280;861;48.808;9.006;2024-01-25T06:04:59;98358.50;;;9.40;77.54
41703;BME280;861;48.808;9.006;2024-01-25T06:07:27;98361.88;;;9.49;77.52
41703;BME280;861;48.808;9.006;2024-01-25T06:09:54;98362.44;;;9.43;77.76
41703;BME280;861;48.808;9.006;2024-01-25T06:12:20;98358.41;;;9.37;77.63
41703;BME280;861;48.808;9.006;2024-01-25T06:14:47;98355.19;;;9.47;77.53
41703;BME280;861;48.808;9.006;2024-01-25T06:17:14;98361.56;;;9.39;77.69
41703;BME280;861;48.808;9.006;2024-01-25T06:19:41;98364.53;;;9.33;77.93
41703;BME280;861;48.808;9.006;2024-01-25T06:22:07;98374.41;;;9.26;78.05
41703;BME280;861;48.808;9.006;2024-01-25T06:24:34;98376.31;;;9.25;78.08
41703;BME280;861;48.808;9.006;2024-01-25T06:27:01;98375.50;;;9.37;77.67
41703;BME280;861;48.808;9.006;2024-01-25T06:29:27;98373.88;;;9.08;78.71
41703;BME280;861;48.808;9.006;2024-01-25T06:31:54;98362.59;;;9.34;78.12
41703;BME280;861;48.808;9.006;2024-01-25T06:34:20;98361.28;;;9.16;78.57
41703;BME280;861;48.808;9.006;2024-01-25T06:36:47;98351.72;;;8.94;79.36
41703;BME280;861;48.808;9.006;2024-01-25T06:39:13;98364.59;;;9.09;78.53
41703;BME280;861;48.808;9.006;2024-01-25T06:41:40;98361.44;;;8.95;79.25
41703;BME280;861;48.808;9.006;2024-01-25T06:44:06;98372.88;;;8.89;79.45
41703;BME280;861;48.808;9.006;2024-01-25T06:46:36;98380.03;;;8.93;79.40
41703;BME280;861;48.808;9.006;2024-01-25T06:49:02;98354.97;;;9.00;78.32
41703;BME280;861;48.808;9.006;2024-01-25T06:51:29;98358.50;;;9.00;78.90
41703;BME280;861;48.808;9.006;2024-01-25T06:53:56;98372.56;;;8.78;79.42
41703;BME280;861;48.808;9.006;2024-01-25T06:56:23;98374.47;;;8.78;79.49
41703;BME280;861;48.808;9.006;2024-01-25T06:58:49;98369.28;;;8.85;79.54
41703;BME280;861;48.808;9.006;2024-01-25T07:01:22;98380.03;;;8.69;79.95
41703;BME280;861;48.808;9.006;2024-01-25T07:03:49;98392.69;;;8.65;79.61
41703;BME280;861;48.808;9.006;2024-01-25T07:06:18;98389.50;;;8.87;78.92
41703;BME280;861;48.808;9.006;2024-01-25T07:08:46;98398.22;;;8.81;78.73
41703;BME280;861;48.808;9.006;2024-01-25T07:11:12;98398.25;;;8.69;78.87
41703;BME280;861;48.808;9.006;2024-01-25T07:13:41;98395.44;;;8.77;78.96
41703;BME280;861;48.808;9.006;2024-01-25T07:16:08;98403.66;;;8.81;78.32
41703;BME280;861;48.808;9.006;2024-01-25T07:18:34;98403.69;;;8.69;79.31
41703;BME280;861;48.808;9.006;2024-01-25T07:21:01;98404.03;;;8.91;78.00
41703;BME280;861;48.808;9.006;2024-01-25T07:23:30;98408.53;;;8.87;77.97
41703;BME280;861;48.808;9.006;2024-01-25T07:25:59;98418.50;;;8.71;78.23
41703;BME280;861;48.808;9.006;2024-01-25T07:28:26;98417.72;;;8.95;77.39
41703;BME280;861;48.808;9.006;2024-01-25T07:30:52;98422.22;;;8.91;77.59
41703;BME280;861;48.808;9.006;2024-01-25T07:33:19;98421.53;;;9.18;76.66
41703;BME280;861;48.808;9.006;2024-01-25T07:35:46;98417.25;;;9.17;76.07
41703;BME280;861;48.808;9.006;2024-01-25T07:38:13;98416.75;;;9.27;75.82
41703;BME280;861;48.808;9.006;2024-01-25T07:40:40;98417.84;;;9.38;75.02
41703;BME280;861;48.808;9.006;2024-01-25T07:43:07;98414.34;;;9.38;74.71
41703;BME280;861;48.808;9.006;2024-01-25T07:45:34;98415.63;;;9.68;73.97
41703;BME280;861;48.808;9.006;2024-01-25T07:48:00;98416.47;;;9.56;74.54
41703;BME280;861;48.808;9.006;2024-01-25T07:50:27;98412.75;;;9.37;75.45
41703;BME280;861;48.808;9.006;2024-01-25T07:52:55;98432.13;;;9.35;75.09
41703;BME280;861;48.808;9.006;2024-01-25T07:55:21;98428.34;;;9.12;75.90
41703;BME280;861;48.808;9.006;2024-01-25T07:57:48;98425.16;;;9.10;76.06
41703;BME280;861;48.808;9.006;2024-01-25T08:00:15;98416.13;;;9.06;76.08
41703;BME280;861;48.808;9.006;2024-01-25T08:02:43;98418.00;;;9.17;75.91
41703;BME280;861;48.808;9.006;2024-01-25T08:05:11;98407.25;;;9.21;75.02
41703;BME280;861;48.808;9.006;2024-01-25T08:07:38;98412.22;;;9.19;75.27
41703;BME280;861;48.808;9.006;2024-01-25T08:10:06;98412.13;;;9.27;75.04
41703;BME280;861;48.808;9.006;2024-01-25T08:12:33;98400.31;;;9.23;75.12
41703;BME280;861;48.808;9.006;2024-01-25T08:14:59;98401.50;;;9.10;75.28
41703;BME280;861;48.808;9.006;2024-01-25T08:17:26;98400.97;;;8.93;76.11
41703;BME280;861;48.808;9.006;2024-01-25T08:19:52;98390.97;;;9.09;75.85
41703;BME280;861;48.808;9.006;2024-01-25T08:22:19;98392.97;;;9.24;75.22
41703;BME280;861;48.808;9.006;2024-01-25T08:24:46;98403.41;;;9.10;75.13
41703;BME280;861;48.808;9.006;2024-01-25T08:27:12;98388.34;;;9.12;75.00
41703;BME280;861;48.808;9.006;2024-01-25T08:29:39;98388.84;;;9.02;75.13
41703;BME280;861;48.808;9.006;2024-01-25T08:32:07;98390.06;;;9.05;75.14
41703;BME280;861;48.808;9.006;2024-01-25T08:34:34;98395.63;;;9.08;74.81
41703;BME280;861;48.808;9.006;2024-01-25T08:37:01;98399.31;;;9.16;74.97
41703;BME280;861;48.808;9.006;2024-01-25T08:39:27;98401.41;;;9.47;73.68
41703;BME280;861;48.808;9.006;2024-01-25T08:41:54;98405.53;;;9.28;73.94
41703;BME280;861;48.808;9.006;2024-01-25T08:44:21;98411.47;;;9.06;74.92
41703;BME280;861;48.808;9.006;2024-01-25T08:46:47;98405.72;;;8.96;75.22
41703;BME280;861;48.808;9.006;2024-01-25T08:49:14;98409.47;;;9.43;73.61
41703;BME280;861;48.808;9.006;2024-01-25T08:51:40;98407.91;;;9.70;72.53
41703;BME280;861;48.808;9.006;2024-01-25T08:54:07;98411.94;;;9.88;71.29
41703;BME280;861;48.808;9.006;2024-01-25T08:56:33;98414.78;;;9.79;72.29
41703;BME280;861;48.808;9.006;2024-01-25T08:59:00;98425.53;;;9.88;72.06
41703;BME280;861;48.808;9.006;2024-01-25T09:01:27;98435.88;;;10.10;70.98
41703;BME280;861;48.808;9.006;2024-01-25T09:03:54;98439.25;;;10.34;70.61
41703;BME280;861;48.808;9.006;2024-01-25T09:06:20;98439.41;;;10.26;70.26
41703;BME280;861;48.808;9.006;2024-01-25T09:08:48;98446.19;;;10.16;71.17
41703;BME280;861;48.808;9.006;2024-01-25T09:11:14;98444.19;;;10.44;68.86
41703;BME280;861;48.808;9.006;2024-01-25T09:13:41;98449.56;;;10.56;68.88
41703;BME280;861;48.808;9.006;2024-01-25T09:16:11;98451.22;;;10.61;69.08
41703;BME280;861;48.808;9.006;2024-01-25T09:18:38;98457.03;;;10.59;69.02
41703;BME280;861;48.808;9.006;2024-01-25T09:21:04;98466.47;;;10.77;68.04
41703;BME280;861;48.808;9.006;2024-01-25T09:23:31;98456.31;;;10.31;69.00
41703;BME280;861;48.808;9.006;2024-01-25T09:25:57;98462.91;;;10.46;69.36
41703;BME280;861;48.808;9.006;2024-01-25T09:28:24;98461.31;;;10.60;68.87
41703;BME280;861;48.808;9.006;2024-01-25T09:30:51;98463.03;;;10.80;68.39
41703;BME280;861;48.808;9.006;2024-01-25T09:33:17;98465.69;;;10.34;69.77
41703;BME280;861;48.808;9.006;2024-01-25T09:35:44;98462.66;;;10.66;69.18
41703;BME280;861;48.808;9.006;2024-01-25T09:38:13;98464.69;;;10.69;69.61
41703;BME280;861;48.808;9.006;2024-01-25T09:40:40;98470.13;;;11.01;68.57
41703;BME280;861;48.808;9.006;2024-01-25T09:43:07;98474.00;;;11.00;68.35
41703;BME280;861;48.808;9.006;2024-01-25T09:45:34;98463.63;;;11.05;66.75
41703;BME280;861;48.808;9.006;2024-01-25T09:48:01;98470.50;;;10.83;68.65
41703;BME280;861;48.808;9.006;2024-01-25T09:50:32;98462.31;;;10.99;68.12
41703;BME280;861;48.808;9.006;2024-01-25T09:53:01;98473.31;;;11.03;69.11
41703;BME280;861;48.808;9.006;2024-01-25T09:55:36;98476.47;;;11.20;68.07
41703;BME280;861;48.808;9.006;2024-01-25T09:58:08;98471.78;;;11.21;67.53
41703;BME280;861;48.808;9.006;2024-01-25T10:00:35;98480.22;;;11.16;68.40
41703;BME280;861;48.808;9.006;2024-01-25T10:03:02;98476.50;;;11.39;66.36
41703;BME280;861;48.808;9.006;2024-01-25T10:05:29;98479.25;;;11.39;67.07
41703;BME280;861;48.808;9.006;2024-01-25T10:07:58;98488.19;;;11.40;65.60
41703;BME280;861;48.808;9.006;2024-01-25T10:10:31;98480.00;;;11.40;66.10
41703;BME280;861;48.808;9.006;2024-01-25T10:12:58;98490.38;;;11.00;68.14
41703;BME280;861;48.808;9.006;2024-01-25T10:15:25;98491.06;;;11.12;67.00
41703;BME280;861;48.808;9.006;2024-01-25T10:17:51;98487.16;;;11.29;67.03
41703;BME280;861;48.808;9.006;2024-01-25T10:20:18;98471.06;;;11.39;65.88
41703;BME280;861;48.808;9.006;2024-01-25T10:22:47;98472.34;;;11.45;67.00
41703;BME280;861;48.808;9.006;2024-01-25T10:25:14;98470.63;;;11.72;66.75
41703;BME280;861;48.808;9.006;2024-01-25T10:27:41;98468.75;;;11.76;65.96
41703;BME280;861;48.808;9.006;2024-01-25T10:30:10;98470.84;;;12.01;64.44
41703;BME280;861;48.808;9.006;2024-01-25T10:32:40;98469.78;;;11.87;65.63
41703;BME280;861;48.808;9.006;2024-01-25T10:35:09;98463.47;;;11.83;66.24
41703;BME280;861;48.808;9.006;2024-01-25T10:37:39;98459.94;;;12.20;63.91
41703;BME280;861;48.808;9.006;2024-01-25T10:40:11;98465.97;;;12.10;64.81
41703;BME280;861;48.808;9.006;2024-01-25T10:42:38;98457.41;;;12.31;64.09
41703;BME280;861;48.808;9.006;2024-01-25T10:45:06;98456.22;;;12.51;62.49
41703;BME280;861;48.808;9.006;2024-01-25T10:47:34;98459.94;;;12.62;61.21
41703;BME280;861;48.808;9.006;2024-01-25T10:50:03;98457.06;;;12.55;61.66
41703;BME280;861;48.808;9.006;2024-01-25T10:52:32;98460.75;;;12.44;61.46
41703;BME280;861;48.808;9.006;2024-01-25T10:55:00;98452.94;;;12.23;63.61
41703;BME280;861;48.808;9.006;2024-01-25T10:57:26;98448.91;;;12.36;62.47
41703;BME280;861;48.808;9.006;2024-01-25T11:00:02;98443.66;;;12.27;63.50
41703;BME280;861;48.808;9.006;2024-01-25T11:02:31;98441.41;;;12.52;61.25
41703;BME280;861;48.808;9.006;2024-01-25T11:04:59;98438.38;;;12.57;61.27
41703;BME280;861;48.808;9.006;2024-01-25T11:07:27;98437.66;;;12.60;60.97
41703;BME280;861;48.808;9.006;2024-01-25T11:09:55;98434.25;;;12.67;60.92
41703;BME280;861;48.808;9.006;2024-01-25T11:12:22;98422.63;;;12.51;61.58
41703;BME280;861;48.808;9.006;2024-01-25T11:14:56;98430.72;;;12.66;61.76
41703;BME280;861;48.808;9.006;2024-01-25T11:17:23;98421.69;;;12.62;61.70
41703;BME280;861;48.808;9.006;2024-01-25T11:19:50;98415.94;;;12.71;61.58
41703;BME280;861;48.808;9.006;2024-01-25T11:22:17;98412.69;;;12.84;60.71
41703;BME280;861;48.808;9.006;2024-01-25T11:24:44;98410.78;;;13.11;61.04
41703;BME280;861;48.808;9.006;2024-01-25T11:27:12;98407.63;;;13.09;60.29
41703;BME280;861;48.808;9.006;2024-01-25T11:29:41;98394.31;;;12.85;61.06
41703;BME280;861;48.808;9.006;2024-01-25T11:32:10;98399.78;;;12.85;62.03
41703;BME280;861;48.808;9.006;2024-01-25T11:34:38;98392.09;;;13.16;60.15
41703;BME280;861;48.808;9.006;2024-01-25T11:37:04;98389.44;;;12.97;61.02
41703;BME280;861;48.808;9.006;2024-01-25T11:39:33;98392.41;;;13.11;60.38
41703;BME280;861;48.808;9.006;2024-01-25T11:41:59;98381.25;;;13.23;58.99
41703;BME280;861;48.808;9.006;2024-01-25T11:44:26;98379.97;;;13.17;60.30
41703;BME280;861;48.808;9.006;2024-01-25T11:46:56;98380.94;;;13.58;59.84
41703;BME280;861;48.808;9.006;2024-01-25T11:49:25;98379.16;;;13.72;59.99
41703;BME280;861;48.808;9.006;2024-01-25T11:51:51;98376.28;;;13.95;58.28
41703;BME280;861;48.808;9.006;2024-01-25T11:54:19;98380.53;;;13.89;57.85
41703;BME280;861;48.808;9.006;2024-01-25T11:56:47;98373.47;;;13.55;59.10
41703;BME280;861;48.808;9.006;2024-01-25T11:59:14;98380.59;;;13.33;60.52
41703;BME280;861;48.808;9.006;2024-01-25T12:01:42;98377.59;;;13.12;61.43
41703;BME280;861;48.808;9.006;2024-01-25T12:04:09;98370.88;;;13.65;59.39
41703;BME280;861;48.808;9.006;2024-01-25T12:06:36;98365.44;;;13.39;59.44
41703;BME280;861;48.808;9.006;2024-01-25T12:09:10;98366.94;;;13.33;60.12
41703;BME280;861;48.808;9.006;2024-01-25T12:11:41;98363.84;;;13.68;59.85
41703;BME280;861;48.808;9.006;2024-01-25T12:14:10;98350.66;;;14.14;58.15
41703;BME280;861;48.808;9.006;2024-01-25T12:16:36;98361.47;;;14.00;59.01
41703;BME280;861;48.808;9.006;2024-01-25T12:19:03;98361.44;;;14.33;57.14
41703;BME280;861;48.808;9.006;2024-01-25T12:21:33;98365.69;;;14.27;57.50
41703;BME280;861;48.808;9.006;2024-01-25T12:24:01;98363.47;;;14.39;56.42
41703;BME280;861;48.808;9.006;2024-01-25T12:26:28;98352.13;;;14.01;58.32
41703;BME280;861;48.808;9.006;2024-01-25T12:28:54;98346.44;;;13.83;58.13
41703;BME280;861;48.808;9.006;2024-01-25T12:31:21;98339.97;;;14.02;57.38
41703;BME280;861;48.808;9.006;2024-01-25T12:33:48;98343.94;;;13.71;58.32
41703;BME280;861;48.808;9.006;2024-01-25T12:36:14;98346.19;;;13.62;57.69
41703;BME280;861;48.808;9.006;2024-01-25T12:38:41;98343.66;;;13.46;57.83
41703;BME280;861;48.808;9.006;2024-01-25T12:41:07;98340.63;;;13.25;58.29
41703;BME280;861;48.808;9.006;2024-01-25T12:43:34;98338.56;;;13.15;58.76
41703;BME280;861;48.808;9.006;2024-01-25T12:46:01;98332.16;;;13.04;60.07
41703;BME280;861;48.808;9.006;2024-01-25T12:48:27;98334.16;;;13.37;59.46
41703;BME280;861;48.808;9.006;2024-01-25T12:50:54;98328.44;;;13.19;59.65
41703;BME280;861;48.808;9.006;2024-01-25T12:53:20;98328.94;;;13.28;59.74
41703;BME280;861;48.808;9.006;2024-01-25T12:55:47;98330.34;;;13.45;58.66
41703;BME280;861;48.808;9.006;2024-01-25T12:58:14;98319.81;;;13.80;58.68
41703;BME280;861;48.808;9.006;2024-01-25T13:00:40;98306.63;;;13.93;58.19
41703;BME280;861;48.808;9.006;2024-01-25T13:03:07;98307.25;;;13.79;57.83
41703;BME280;861;48.808;9.006;2024-01-25T13:05:34;98298.84;;;13.98;56.94
41703;BME280;861;48.808;9.006;2024-01-25T13:08:04;98290.09;;;14.22;57.02
41703;BME280;861;48.808;9.006;2024-01-25T13:10:31;98308.03;;;14.60;57.03
41703;BME280;861;48.808;9.006;2024-01-25T13:12:58;98294.13;;;14.86;55.35
41703;BME280;861;48.808;9.006;2024-01-25T13:15:25;98291.13;;;15.12;55.47
41703;BME280;861;48.808;9.006;2024-01-25T13:17:53;98292.88;;;15.41;54.42
41703;BME280;861;48.808;9.006;2024-01-25T13:20:19;98286.75;;;15.90;52.86
41703;BME280;861;48.808;9.006;2024-01-25T13:22:46;98279.66;;;15.82;53.43
41703;BME280;861;48.808;9.006;2024-01-25T13:25:13;98270.22;;;15.79;54.65